createdAt,value
2022-08-24T00:03:41.335Z,99056.88
2022-08-24T00:08:33.788Z,99047.75
2022-08-24T00:13:26.565Z,99036.75
2022-08-24T00:18:21.096Z,99046.94
2022-08-24T00:23:12.752Z,99036.25
2022-08-24T00:28:05.630Z,99029.16
2022-08-24T00:32:57.553Z,99030.63
2022-08-24T00:37:51.103Z,99024.03
2022-08-24T00:42:43.052Z,99014.78
2022-08-24T00:47:51.888Z,99014.50
2022-08-24T00:52:50.918Z,99009.34
2022-08-24T00:57:46.952Z,99016.50
2022-08-24T01:02:43.796Z,99015.47
2022-08-24T01:07:37.394Z,99017.94
2022-08-24T01:12:33.354Z,99011.66
2022-08-24T01:17:44.152Z,98997.09
2022-08-24T01:23:05.566Z,98986.97
2022-08-24T01:28:04.005Z,98996.09
2022-08-24T01:33:00.559Z,98991.75
2022-08-24T01:37:54.532Z,98987.94
2022-08-24T01:42:51.762Z,98982.72
2022-08-24T01:47:43.524Z,98994.28
2022-08-24T01:53:03.519Z,98984.41
2022-08-24T01:57:47.631Z,98973.69
2022-08-24T02:02:40.121Z,98966.03
2022-08-24T02:07:33.004Z,98970.78
2022-08-24T02:12:24.972Z,98974.91
2022-08-24T02:17:18.277Z,98971.88
2022-08-24T02:22:10.299Z,98971.59
2022-08-24T02:27:02.556Z,98964.16
2022-08-24T02:31:54.328Z,98962.81
2022-08-24T02:36:46.874Z,98971.34
2022-08-24T02:41:38.550Z,98964.22
2022-08-24T02:46:31.020Z,98965.06
2022-08-24T02:51:26.749Z,98952.16
2022-08-24T02:56:21.419Z,98944.22
2022-08-24T03:01:17.629Z,98943.16
2022-08-24T03:06:14.182Z,98958.78
2022-08-24T03:11:08.337Z,98959.91
2022-08-24T03:16:00.251Z,98964.28
2022-08-24T03:20:52.733Z,98960.72
2022-08-24T03:25:44.857Z,98960.72
2022-08-24T03:30:36.625Z,98949.22
2022-08-24T03:35:28.643Z,98943.75
2022-08-24T03:40:22.535Z,98945.66
2022-08-24T03:45:16.000Z,98942.09
2022-08-24T03:50:10.784Z,98953.06
2022-08-24T03:55:05.999Z,98946.78
2022-08-24T03:59:57.693Z,98954.44
2022-08-24T04:04:49.488Z,98948.97
2022-08-24T04:09:41.349Z,98948.16
2022-08-24T04:14:34.401Z,98932.78
2022-08-24T04:19:27.597Z,98941.84
2022-08-24T04:24:20.502Z,98928.13
2022-08-24T04:29:13.914Z,98921.53
2022-08-24T04:34:06.922Z,98917.09
2022-08-24T04:38:58.715Z,98916.00
2022-08-24T04:43:50.933Z,98928.59
2022-08-24T04:48:45.137Z,98925.84
2022-08-24T04:53:37.637Z,98927.50
2022-08-24T04:58:30.768Z,98921.22
2022-08-24T05:03:23.277Z,98933.81
2022-08-24T05:08:15.977Z,98934.09
2022-08-24T05:13:08.658Z,98929.19
2022-08-24T05:18:01.093Z,98929.75
2022-08-24T05:22:55.931Z,98957.75
2022-08-24T05:27:48.761Z,98955.00
2022-08-24T05:32:40.650Z,98962.97
2022-08-24T05:37:35.957Z,98969.31
2022-08-24T05:42:27.618Z,98968.19
2022-08-24T05:47:19.477Z,98970.91
2022-08-24T05:52:11.138Z,98980.00
2022-08-24T05:57:05.151Z,98978.06
2022-08-24T06:01:57.190Z,98984.34
2022-08-24T06:06:50.096Z,98981.84
2022-08-24T06:11:42.270Z,98993.03
2022-08-24T06:16:39.900Z,99000.44
2022-08-24T06:21:32.052Z,99007.28
2022-08-24T06:26:43.050Z,99016.09
2022-08-24T06:31:41.808Z,99024.03
2022-08-24T06:36:33.872Z,99032.56
2022-08-24T06:41:26.269Z,99037.19
2022-08-24T06:46:22.085Z,99044.91
2022-08-24T06:51:18.429Z,99039.16
2022-08-24T06:56:10.562Z,99039.41
2022-08-24T07:01:15.825Z,99047.59
2022-08-24T07:06:08.639Z,99044.00
2022-08-24T07:11:00.425Z,99051.31
2022-08-24T07:15:53.395Z,99065.03
2022-08-24T07:20:45.542Z,99076.84
2022-08-24T07:25:37.249Z,99081.53
2022-08-24T07:30:29.058Z,99080.97
2022-08-24T07:35:21.185Z,99093.09
2022-08-24T07:40:12.994Z,99105.22
2022-08-24T07:45:05.357Z,99114.25
2022-08-24T07:49:57.355Z,99111.50
2022-08-24T07:54:49.781Z,99108.47
2022-08-24T07:59:41.913Z,99110.09
2022-08-24T08:04:34.108Z,99111.03
2022-08-24T08:09:25.825Z,99106.94
2022-08-24T08:14:17.598Z,99109.66
2022-08-24T08:19:10.162Z,99122.31
2022-08-24T08:24:20.483Z,99141.09
2022-08-24T08:29:13.807Z,99152.00
2022-08-24T08:34:06.402Z,99150.75
2022-08-24T08:38:59.004Z,99156.31
2022-08-24T08:44:06.378Z,99161.59
2022-08-24T08:49:19.354Z,99170.81
2022-08-24T08:54:32.680Z,99185.53
2022-08-24T08:59:52.307Z,99167.06
2022-08-24T09:05:06.751Z,99161.91
2022-08-24T09:10:20.151Z,99167.31
2022-08-24T09:15:29.349Z,99171.16
2022-08-24T09:20:27.201Z,99176.66
2022-08-24T09:25:40.245Z,99179.06
2022-08-24T09:30:54.627Z,99164.81
2022-08-24T09:36:01.001Z,99202.38
2022-08-24T09:41:14.371Z,99196.50
2022-08-24T09:46:06.096Z,99197.56
2022-08-24T09:51:16.669Z,99192.34
2022-08-24T09:56:29.019Z,99197.16
2022-08-24T10:01:49.312Z,99205.47
2022-08-24T10:07:07.065Z,99215.75
2022-08-24T10:12:11.593Z,99213.19
2022-08-24T10:17:06.367Z,99233.00
2022-08-24T10:22:06.987Z,99230.00
2022-08-24T10:27:31.277Z,99227.84
2022-08-24T10:32:47.673Z,99233.69
2022-08-24T10:38:18.320Z,99225.81
2022-08-24T10:43:36.237Z,99223.59
2022-08-24T10:48:33.499Z,99228.72
2022-08-24T10:53:31.005Z,99239.56
2022-08-24T10:58:44.091Z,99249.63
2022-08-24T11:03:52.749Z,99242.91
2022-08-24T11:08:58.401Z,99243.31
2022-08-24T11:14:00.474Z,99244.78
2022-08-24T11:18:55.755Z,99226.94
2022-08-24T11:23:48.096Z,99213.34
2022-08-24T11:28:45.405Z,99218.88
2022-08-24T11:33:50.050Z,99215.13
2022-08-24T11:38:45.892Z,99220.84
2022-08-24T11:44:07.646Z,99223.13
2022-08-24T11:49:24.830Z,99221.00
2022-08-24T11:54:25.315Z,99228.81
2022-08-24T11:59:49.704Z,99235.19
2022-08-24T12:04:49.320Z,99228.03
2022-08-24T12:10:15.197Z,99233.75
2022-08-24T12:15:32.872Z,99224.63
2022-08-24T12:20:32.047Z,99219.75
2022-08-24T12:25:45.820Z,99233.44
2022-08-24T12:30:37.541Z,99235.25
2022-08-24T12:35:45.886Z,99233.50
2022-08-24T12:40:48.159Z,99234.09
2022-08-24T12:45:41.126Z,99228.06
2022-08-24T12:51:04.328Z,99246.50
2022-08-24T12:56:18.552Z,99244.19
2022-08-24T13:01:11.746Z,99246.66
2022-08-24T13:06:27.889Z,99235.53
2022-08-24T13:11:32.014Z,99241.75
2022-08-24T13:16:50.881Z,99242.25
2022-08-24T13:21:50.804Z,99248.94
2022-08-24T13:26:42.497Z,99250.84
2022-08-24T13:31:38.613Z,99256.59
2022-08-24T13:36:53.534Z,99262.28
2022-08-24T13:41:55.639Z,99260.84
2022-08-24T13:47:12.913Z,99254.47
2022-08-24T13:52:16.311Z,99271.47
2022-08-24T13:57:14.159Z,99268.06
2022-08-24T14:02:25.913Z,99278.03
2022-08-24T14:07:23.773Z,99277.34
2022-08-24T14:12:30.706Z,99274.25
2022-08-24T14:17:54.099Z,99276.88
2022-08-24T14:23:18.383Z,99274.75
2022-08-24T14:28:32.871Z,99285.00
2022-08-24T14:33:35.433Z,99284.50
2022-08-24T14:38:56.461Z,99280.44
2022-08-24T14:44:00.186Z,99291.84
2022-08-24T14:49:06.910Z,99299.50
2022-08-24T14:54:19.822Z,99302.75
2022-08-24T14:59:29.865Z,99296.63
2022-08-24T15:04:37.244Z,99302.78
2022-08-24T15:09:38.737Z,99290.03
2022-08-24T15:14:55.374Z,99285.78
2022-08-24T15:19:57.820Z,99283.38
2022-08-24T15:25:05.394Z,99284.38
2022-08-24T15:29:59.658Z,99284.28
2022-08-24T15:34:58.314Z,99291.25
2022-08-24T15:39:50.079Z,99294.94
2022-08-24T15:44:45.274Z,99284.50
2022-08-24T15:50:08.602Z,99291.69
2022-08-24T15:55:03.426Z,99287.13
2022-08-24T16:00:07.904Z,99291.31
2022-08-24T16:05:24.275Z,99288.34
2022-08-24T16:10:29.926Z,99287.97
2022-08-24T16:15:21.670Z,99291.19
2022-08-24T16:20:34.214Z,99303.50
2022-08-24T16:25:28.837Z,99302.09
2022-08-24T16:30:35.867Z,99303.53
2022-08-24T16:35:27.741Z,99308.59
2022-08-24T16:40:19.668Z,99304.81
2022-08-24T16:45:15.155Z,99303.50
2022-08-24T16:50:07.257Z,99304.13
2022-08-24T16:55:00.860Z,99305.75
2022-08-24T16:59:53.054Z,99304.94
2022-08-24T17:04:45.657Z,99305.06
2022-08-24T17:09:39.321Z,99303.25
2022-08-24T17:14:31.247Z,99297.31
2022-08-24T17:19:22.926Z,99300.31
2022-08-24T17:24:17.851Z,99312.47
2022-08-24T17:29:10.465Z,99316.28
2022-08-24T17:34:08.321Z,99310.13
2022-08-24T17:39:02.109Z,99318.03
2022-08-24T17:43:55.010Z,99321.13
2022-08-24T17:48:47.972Z,99319.09
2022-08-24T17:53:39.913Z,99328.00
2022-08-24T17:58:31.618Z,99327.09
2022-08-24T18:03:23.315Z,99333.22
2022-08-24T18:08:15.138Z,99346.03
2022-08-24T18:13:09.614Z,99357.28
2022-08-24T18:18:03.980Z,99374.59
2022-08-24T18:22:56.217Z,99378.78
2022-08-24T18:27:51.016Z,99382.13
2022-08-24T18:32:42.681Z,99386.13
2022-08-24T18:37:34.413Z,99391.53
2022-08-24T18:42:27.380Z,99389.44
2022-08-24T18:47:19.006Z,99401.69
2022-08-24T18:52:14.565Z,99395.22
2022-08-24T18:57:07.357Z,99406.75
2022-08-24T19:02:19.437Z,99411.53
2022-08-24T19:07:11.458Z,99413.25
2022-08-24T19:12:04.399Z,99413.94
2022-08-24T19:16:56.107Z,99416.03
2022-08-24T19:21:47.990Z,99424.44
2022-08-24T19:26:39.662Z,99430.63
2022-08-24T19:31:33.634Z,99435.47
2022-08-24T19:36:25.848Z,99433.38
2022-08-24T19:41:18.925Z,99446.47
2022-08-24T19:46:12.024Z,99447.41
2022-08-24T19:51:09.791Z,99459.91
2022-08-24T19:56:01.877Z,99458.09
2022-08-24T20:01:03.922Z,99462.25
2022-08-24T20:05:55.769Z,99463.13
2022-08-24T20:10:48.173Z,99457.66
2022-08-24T20:15:40.441Z,99448.66
2022-08-24T20:20:32.637Z,99447.34
2022-08-24T20:25:24.391Z,99456.03
2022-08-24T20:30:17.905Z,99453.06
2022-08-24T20:35:10.247Z,99448.94
2022-08-24T20:40:03.191Z,99458.03
2022-08-24T20:44:55.748Z,99451.47
2022-08-24T20:49:48.367Z,99465.00
2022-08-24T20:54:41.044Z,99465.31
2022-08-24T20:59:34.529Z,99469.78
2022-08-24T21:04:26.185Z,99468.13
2022-08-24T21:09:20.570Z,99471.44
2022-08-24T21:14:12.947Z,99472.59
2022-08-24T21:19:05.055Z,99477.59
2022-08-24T21:23:56.799Z,99483.44
2022-08-24T21:28:49.004Z,99496.41
2022-08-24T21:33:59.357Z,99491.47
2022-08-24T21:38:54.725Z,99490.66
2022-08-24T21:43:46.541Z,99484.91
2022-08-24T21:48:39.860Z,99482.41
2022-08-24T21:53:31.701Z,99487.41
2022-08-24T21:58:24.466Z,99476.72
2022-08-24T22:03:16.220Z,99475.63
2022-08-24T22:08:08.403Z,99493.22
2022-08-24T22:13:04.022Z,99488.56
2022-08-24T22:17:56.249Z,99502.03
2022-08-24T22:22:48.594Z,99491.34
2022-08-24T22:27:45.813Z,99495.75
2022-08-24T22:32:37.650Z,99501.03
2022-08-24T22:37:29.701Z,99494.72
2022-08-24T22:42:21.516Z,99510.97
2022-08-24T22:47:15.040Z,99508.50
2022-08-24T22:52:07.703Z,99521.47
2022-08-24T22:56:59.544Z,99526.97
2022-08-24T23:01:54.249Z,99515.44
2022-08-24T23:06:46.727Z,99517.13
2022-08-24T23:11:39.535Z,99516.00
2022-08-24T23:16:33.298Z,99519.84
2022-08-24T23:21:26.041Z,99517.69
2022-08-24T23:26:20.574Z,99508.91
2022-08-24T23:31:13.538Z,99512.75
2022-08-24T23:36:11.039Z,99502.31
2022-08-24T23:41:12.161Z,99503.97
2022-08-24T23:46:04.335Z,99510.00
2022-08-24T23:51:00.244Z,99504.50
2022-08-24T23:55:53.263Z,99515.47
